Huvudsida
METAR-TAF:

METAR-TAF

Flygplatser :

Berlin-Tegels flygplats

Berlin, Tyskland

latitud: 52-34N, longitud: 013-19E, höjd: 37 m

Aktuellt väderrapport

Denna rapport gjordes för 15 minuter sedan, klockan 21:20 UTC
Vind 1 kt från ost
Temperatur 21°C
Fuktighet 56%
Tryck 1015 hPa
Sikt 10 km eller mer
Inga moln under 1 500 m eller inga cumulonimbus

METAR: EDDT 192120Z 09001KT CAVOK 21/12 Q1015

Tid: 23:35 (21:35 UTC)

Väderprognos

Denna rapport gjordes för 4 timmar och 35 minuter sedan, klockan 17:00 UTC
Prognos gäller från 19 kl. 18 UTC till 20 kl. 18 UTC
Vind 5 kt från väst/sydväst
Sikt 10 km eller mer
Inga moln under 1 500 m eller inga cumulonimbus
Blir
från 20 kl. 06 UTC till 20 kl. 09 UTC
Vind 10 kt från väst
Sannolikhet 30% :
Temporärt
från 20 kl. 11 UTC till 20 kl. 16 UTC
Vind 15 kt från väst i byarna ända upp till 25 kt

TAF: EDDT 191700Z 1918/2018 25005KT CAVOK BECMG 2006/2009 27010KT PROB30 TEMPO 2011/2016 28015G25KT

Aktuella väderrapporter och prognoser från 4000 flygplatser (METAR- och TAF-rapporter).

De tillgängliga stationerna syns som gula och röda prickar på kartan.

För musen över prickarna för att se namnen på stationerna.

Klicka sedan för att få väderrapporter och prognoser.

För att ändra kartan: Klicka på de gröna knapparna med ett svart kors på för att zooma in; den gröna knappen med ett streck på för att zooma ut; eller på de gröna pilarna för angränsande kartor.


METAR-TAF: